sensor_id;sensor_type;location;lat;lon;timestamp;P1;durP1;ratioP1;P2;durP2;ratioP2
62994;SDS011;49086;52.300;4.850;2022-11-14T00:01:28;15.43;;;9.17;;
62994;SDS011;49086;52.300;4.850;2022-11-14T00:03:54;13.98;;;9.13;;
62994;SDS011;49086;52.300;4.850;2022-11-14T00:06:22;13.60;;;9.07;;
62994;SDS011;49086;52.300;4.850;2022-11-14T00:08:47;14.98;;;10.10;;
62994;SDS011;49086;52.300;4.850;2022-11-14T00:11:14;16.07;;;9.67;;
62994;SDS011;49086;52.300;4.850;2022-11-14T00:13:39;14.90;;;9.63;;
62994;SDS011;49086;52.300;4.850;2022-11-14T00:16:06;13.40;;;9.55;;
62994;SDS011;49086;52.300;4.850;2022-11-14T00:18:31;16.08;;;9.52;;
62994;SDS011;49086;52.300;4.850;2022-11-14T00:21:00;17.48;;;9.93;;
62994;SDS011;49086;52.300;4.850;2022-11-14T00:23:25;14.45;;;9.90;;
62994;SDS011;49086;52.300;4.850;2022-11-14T00:25:51;15.45;;;10.10;;
62994;SDS011;49086;52.300;4.850;2022-11-14T00:28:16;13.83;;;9.57;;
62994;SDS011;49086;52.300;4.850;2022-11-14T00:30:44;13.70;;;9.13;;
62994;SDS011;49086;52.300;4.850;2022-11-14T00:33:17;13.50;;;9.35;;
62994;SDS011;49086;52.300;4.850;2022-11-14T00:35:48;16.90;;;9.85;;
62994;SDS011;49086;52.300;4.850;2022-11-14T00:38:14;17.10;;;9.77;;
62994;SDS011;49086;52.300;4.850;2022-11-14T00:40:39;15.87;;;10.53;;
62994;SDS011;49086;52.300;4.850;2022-11-14T00:43:04;15.43;;;10.93;;
62994;SDS011;49086;52.300;4.850;2022-11-14T00:45:31;18.88;;;10.52;;
62994;SDS011;49086;52.300;4.850;2022-11-14T00:47:57;16.48;;;10.35;;
62994;SDS011;49086;52.300;4.850;2022-11-14T00:50:23;17.37;;;10.17;;
62994;SDS011;49086;52.300;4.850;2022-11-14T00:52:48;16.53;;;10.57;;
62994;SDS011;49086;52.300;4.850;2022-11-14T00:55:14;20.67;;;11.50;;
62994;SDS011;49086;52.300;4.850;2022-11-14T00:57:43;16.23;;;10.88;;
62994;SDS011;49086;52.300;4.850;2022-11-14T01:00:09;17.87;;;12.17;;
62994;SDS011;49086;52.300;4.850;2022-11-14T01:02:35;17.00;;;10.15;;
62994;SDS011;49086;52.300;4.850;2022-11-14T01:05:01;19.63;;;11.93;;
62994;SDS011;49086;52.300;4.850;2022-11-14T01:07:27;18.60;;;11.75;;
62994;SDS011;49086;52.300;4.850;2022-11-14T01:09:52;21.10;;;11.00;;
62994;SDS011;49086;52.300;4.850;2022-11-14T01:12:17;22.67;;;13.17;;
62994;SDS011;49086;52.300;4.850;2022-11-14T01:14:44;19.50;;;11.95;;
62994;SDS011;49086;52.300;4.850;2022-11-14T01:17:09;21.60;;;11.63;;
62994;SDS011;49086;52.300;4.850;2022-11-14T01:19:35;19.17;;;11.38;;
62994;SDS011;49086;52.300;4.850;2022-11-14T01:22:01;20.70;;;11.80;;
62994;SDS011;49086;52.300;4.850;2022-11-14T01:24:28;21.35;;;12.75;;
62994;SDS011;49086;52.300;4.850;2022-11-14T01:26:54;19.77;;;12.32;;
62994;SDS011;49086;52.300;4.850;2022-11-14T01:29:20;22.67;;;13.52;;
62994;SDS011;49086;52.300;4.850;2022-11-14T01:31:45;20.43;;;12.40;;
62994;SDS011;49086;52.300;4.850;2022-11-14T01:34:10;23.48;;;13.63;;
62994;SDS011;49086;52.300;4.850;2022-11-14T01:36:40;22.27;;;13.82;;
62994;SDS011;49086;52.300;4.850;2022-11-14T01:39:06;22.88;;;13.73;;
62994;SDS011;49086;52.300;4.850;2022-11-14T01:41:31;21.93;;;12.80;;
62994;SDS011;49086;52.300;4.850;2022-11-14T01:43:56;23.17;;;13.20;;
62994;SDS011;49086;52.300;4.850;2022-11-14T01:46:25;26.45;;;14.98;;
62994;SDS011;49086;52.300;4.850;2022-11-14T01:48:53;21.98;;;13.60;;
62994;SDS011;49086;52.300;4.850;2022-11-14T01:51:25;24.83;;;14.82;;
62994;SDS011;49086;52.300;4.850;2022-11-14T01:53:54;23.10;;;13.48;;
62994;SDS011;49086;52.300;4.850;2022-11-14T01:56:24;24.88;;;14.43;;
62994;SDS011;49086;52.300;4.850;2022-11-14T01:58:52;29.08;;;15.50;;
62994;SDS011;49086;52.300;4.850;2022-11-14T02:01:19;24.98;;;14.38;;
62994;SDS011;49086;52.300;4.850;2022-11-14T02:03:50;27.10;;;15.73;;
62994;SDS011;49086;52.300;4.850;2022-11-14T02:06:18;26.13;;;14.25;;
62994;SDS011;49086;52.300;4.850;2022-11-14T02:08:44;25.00;;;15.35;;
62994;SDS011;49086;52.300;4.850;2022-11-14T02:11:12;26.02;;;15.82;;
62994;SDS011;49086;52.300;4.850;2022-11-14T02:13:37;27.67;;;15.95;;
62994;SDS011;49086;52.300;4.850;2022-11-14T02:16:05;26.08;;;14.73;;
62994;SDS011;49086;52.300;4.850;2022-11-14T02:18:31;28.98;;;14.88;;
62994;SDS011;49086;52.300;4.850;2022-11-14T02:20:57;28.10;;;15.13;;
62994;SDS011;49086;52.300;4.850;2022-11-14T02:23:25;27.55;;;15.48;;
62994;SDS011;49086;52.300;4.850;2022-11-14T02:25:55;28.10;;;15.45;;
62994;SDS011;49086;52.300;4.850;2022-11-14T02:28:21;28.58;;;16.02;;
62994;SDS011;49086;52.300;4.850;2022-11-14T02:30:47;28.23;;;15.85;;
62994;SDS011;49086;52.300;4.850;2022-11-14T02:33:12;30.13;;;16.07;;
62994;SDS011;49086;52.300;4.850;2022-11-14T02:35:38;28.13;;;16.35;;
62994;SDS011;49086;52.300;4.850;2022-11-14T02:38:04;28.02;;;15.32;;
62994;SDS011;49086;52.300;4.850;2022-11-14T02:40:30;27.92;;;15.85;;
62994;SDS011;49086;52.300;4.850;2022-11-14T02:42:55;26.93;;;15.30;;
62994;SDS011;49086;52.300;4.850;2022-11-14T02:45:21;31.67;;;15.90;;
62994;SDS011;49086;52.300;4.850;2022-11-14T02:47:47;30.15;;;15.80;;
62994;SDS011;49086;52.300;4.850;2022-11-14T02:50:13;29.75;;;16.48;;
62994;SDS011;49086;52.300;4.850;2022-11-14T02:52:38;30.05;;;15.68;;
62994;SDS011;49086;52.300;4.850;2022-11-14T02:55:04;29.08;;;16.35;;
62994;SDS011;49086;52.300;4.850;2022-11-14T02:57:30;33.92;;;17.02;;
62994;SDS011;49086;52.300;4.850;2022-11-14T02:59:55;31.52;;;17.15;;
62994;SDS011;49086;52.300;4.850;2022-11-14T03:02:22;34.63;;;16.50;;
62994;SDS011;49086;52.300;4.850;2022-11-14T03:04:50;28.90;;;16.60;;
62994;SDS011;49086;52.300;4.850;2022-11-14T03:07:15;28.88;;;16.83;;
62994;SDS011;49086;52.300;4.850;2022-11-14T03:09:41;32.78;;;17.05;;
62994;SDS011;49086;52.300;4.850;2022-11-14T03:12:06;29.05;;;16.05;;
62994;SDS011;49086;52.300;4.850;2022-11-14T03:14:34;35.07;;;17.77;;
62994;SDS011;49086;52.300;4.850;2022-11-14T03:16:59;34.95;;;17.30;;
62994;SDS011;49086;52.300;4.850;2022-11-14T03:19:24;34.30;;;17.10;;
62994;SDS011;49086;52.300;4.850;2022-11-14T03:21:50;31.42;;;17.20;;
62994;SDS011;49086;52.300;4.850;2022-11-14T03:24:15;31.70;;;17.23;;
62994;SDS011;49086;52.300;4.850;2022-11-14T03:26:40;34.33;;;16.60;;
62994;SDS011;49086;52.300;4.850;2022-11-14T03:29:06;30.90;;;16.67;;
62994;SDS011;49086;52.300;4.850;2022-11-14T03:31:32;34.95;;;17.17;;
62994;SDS011;49086;52.300;4.850;2022-11-14T03:33:57;29.70;;;16.03;;
62994;SDS011;49086;52.300;4.850;2022-11-14T03:36:22;36.30;;;18.13;;
62994;SDS011;49086;52.300;4.850;2022-11-14T03:38:47;36.83;;;18.17;;
62994;SDS011;49086;52.300;4.850;2022-11-14T03:41:12;30.97;;;17.27;;
62994;SDS011;49086;52.300;4.850;2022-11-14T03:43:38;37.47;;;18.23;;
62994;SDS011;49086;52.300;4.850;2022-11-14T03:46:07;30.05;;;17.20;;
62994;SDS011;49086;52.300;4.850;2022-11-14T03:48:35;36.72;;;18.33;;
62994;SDS011;49086;52.300;4.850;2022-11-14T03:51:00;34.90;;;17.73;;
62994;SDS011;49086;52.300;4.850;2022-11-14T03:53:26;38.85;;;17.77;;
62994;SDS011;49086;52.300;4.850;2022-11-14T03:55:52;36.72;;;17.20;;
62994;SDS011;49086;52.300;4.850;2022-11-14T03:58:18;32.70;;;17.00;;
62994;SDS011;49086;52.300;4.850;2022-11-14T04:00:44;34.35;;;17.70;;
62994;SDS011;49086;52.300;4.850;2022-11-14T04:03:09;36.60;;;17.98;;
62994;SDS011;49086;52.300;4.850;2022-11-14T04:05:35;35.70;;;18.77;;
62994;SDS011;49086;52.300;4.850;2022-11-14T04:08:01;38.75;;;18.65;;
62994;SDS011;49086;52.300;4.850;2022-11-14T04:10:28;36.47;;;17.83;;
62994;SDS011;49086;52.300;4.850;2022-11-14T04:12:58;38.00;;;17.58;;
62994;SDS011;49086;52.300;4.850;2022-11-14T04:15:24;37.75;;;18.38;;
62994;SDS011;49086;52.300;4.850;2022-11-14T04:17:49;35.30;;;17.60;;
62994;SDS011;49086;52.300;4.850;2022-11-14T04:20:16;38.10;;;17.77;;
62994;SDS011;49086;52.300;4.850;2022-11-14T04:22:41;38.75;;;17.70;;
62994;SDS011;49086;52.300;4.850;2022-11-14T04:25:07;36.30;;;17.40;;
62994;SDS011;49086;52.300;4.850;2022-11-14T04:27:33;35.22;;;17.15;;
62994;SDS011;49086;52.300;4.850;2022-11-14T04:29:58;35.15;;;17.42;;
62994;SDS011;49086;52.300;4.850;2022-11-14T04:32:23;33.57;;;17.23;;
62994;SDS011;49086;52.300;4.850;2022-11-14T04:34:48;31.63;;;16.87;;
62994;SDS011;49086;52.300;4.850;2022-11-14T04:37:14;38.65;;;17.58;;
62994;SDS011;49086;52.300;4.850;2022-11-14T04:39:39;39.65;;;18.10;;
62994;SDS011;49086;52.300;4.850;2022-11-14T04:42:05;31.67;;;16.13;;
62994;SDS011;49086;52.300;4.850;2022-11-14T04:44:30;35.63;;;17.13;;
62994;SDS011;49086;52.300;4.850;2022-11-14T04:46:56;38.13;;;18.83;;
62994;SDS011;49086;52.300;4.850;2022-11-14T04:49:21;36.85;;;17.20;;
62994;SDS011;49086;52.300;4.850;2022-11-14T04:51:47;34.85;;;17.20;;
62994;SDS011;49086;52.300;4.850;2022-11-14T04:54:13;35.37;;;17.43;;
62994;SDS011;49086;52.300;4.850;2022-11-14T04:56:39;38.47;;;17.17;;
62994;SDS011;49086;52.300;4.850;2022-11-14T04:59:04;35.15;;;17.58;;
62994;SDS011;49086;52.300;4.850;2022-11-14T05:01:29;35.83;;;17.55;;
62994;SDS011;49086;52.300;4.850;2022-11-14T05:03:55;44.33;;;18.87;;
62994;SDS011;49086;52.300;4.850;2022-11-14T05:06:22;35.65;;;17.23;;
62994;SDS011;49086;52.300;4.850;2022-11-14T05:08:48;37.47;;;17.83;;
62994;SDS011;49086;52.300;4.850;2022-11-14T05:11:16;41.00;;;18.67;;
62994;SDS011;49086;52.300;4.850;2022-11-14T05:13:42;38.25;;;17.65;;
62994;SDS011;49086;52.300;4.850;2022-11-14T05:16:07;39.05;;;17.63;;
62994;SDS011;49086;52.300;4.850;2022-11-14T05:18:39;36.95;;;16.63;;
62994;SDS011;49086;52.300;4.850;2022-11-14T05:21:05;35.53;;;16.88;;
62994;SDS011;49086;52.300;4.850;2022-11-14T05:23:30;38.78;;;17.70;;
62994;SDS011;49086;52.300;4.850;2022-11-14T05:26:04;42.58;;;19.02;;
62994;SDS011;49086;52.300;4.850;2022-11-14T05:28:29;40.83;;;18.15;;
62994;SDS011;49086;52.300;4.850;2022-11-14T05:31:04;36.83;;;17.38;;
62994;SDS011;49086;52.300;4.850;2022-11-14T05:33:30;39.05;;;17.45;;
62994;SDS011;49086;52.300;4.850;2022-11-14T05:36:00;38.05;;;17.65;;
62994;SDS011;49086;52.300;4.850;2022-11-14T05:38:33;38.78;;;17.15;;
62994;SDS011;49086;52.300;4.850;2022-11-14T05:40:59;40.55;;;16.83;;
62994;SDS011;49086;52.300;4.850;2022-11-14T05:43:24;40.08;;;17.60;;
62994;SDS011;49086;52.300;4.850;2022-11-14T05:45:49;39.75;;;17.13;;
62994;SDS011;49086;52.300;4.850;2022-11-14T05:48:15;36.60;;;17.90;;
62994;SDS011;49086;52.300;4.850;2022-11-14T05:50:40;35.77;;;17.40;;
62994;SDS011;49086;52.300;4.850;2022-11-14T05:53:06;37.10;;;17.00;;
62994;SDS011;49086;52.300;4.850;2022-11-14T05:55:33;37.20;;;19.45;;
62994;SDS011;49086;52.300;4.850;2022-11-14T05:57:59;36.47;;;17.80;;
62994;SDS011;49086;52.300;4.850;2022-11-14T06:00:25;39.75;;;19.23;;
62994;SDS011;49086;52.300;4.850;2022-11-14T06:02:51;45.85;;;18.27;;
62994;SDS011;49086;52.300;4.850;2022-11-14T06:05:17;36.70;;;16.77;;
62994;SDS011;49086;52.300;4.850;2022-11-14T06:07:42;35.43;;;17.23;;
62994;SDS011;49086;52.300;4.850;2022-11-14T06:10:09;36.30;;;17.27;;
62994;SDS011;49086;52.300;4.850;2022-11-14T06:12:38;38.20;;;17.35;;
62994;SDS011;49086;52.300;4.850;2022-11-14T06:15:05;37.80;;;17.13;;
62994;SDS011;49086;52.300;4.850;2022-11-14T06:17:31;34.53;;;16.77;;
62994;SDS011;49086;52.300;4.850;2022-11-14T06:19:56;37.80;;;17.30;;
62994;SDS011;49086;52.300;4.850;2022-11-14T06:22:21;37.60;;;16.70;;
62994;SDS011;49086;52.300;4.850;2022-11-14T06:24:47;35.83;;;17.88;;
62994;SDS011;49086;52.300;4.850;2022-11-14T06:27:13;40.30;;;17.60;;
62994;SDS011;49086;52.300;4.850;2022-11-14T06:29:38;37.97;;;17.27;;
62994;SDS011;49086;52.300;4.850;2022-11-14T06:32:03;38.08;;;18.10;;
62994;SDS011;49086;52.300;4.850;2022-11-14T06:34:29;38.67;;;17.55;;
62994;SDS011;49086;52.300;4.850;2022-11-14T06:36:55;35.60;;;15.88;;
62994;SDS011;49086;52.300;4.850;2022-11-14T06:39:25;38.05;;;16.25;;
62994;SDS011;49086;52.300;4.850;2022-11-14T06:41:50;35.63;;;16.27;;
62994;SDS011;49086;52.300;4.850;2022-11-14T06:44:16;38.45;;;16.45;;
62994;SDS011;49086;52.300;4.850;2022-11-14T06:46:43;35.65;;;16.60;;
62994;SDS011;49086;52.300;4.850;2022-11-14T06:49:10;34.63;;;17.00;;
62994;SDS011;49086;52.300;4.850;2022-11-14T06:51:39;39.10;;;17.27;;
62994;SDS011;49086;52.300;4.850;2022-11-14T06:54:04;33.03;;;15.27;;
62994;SDS011;49086;52.300;4.850;2022-11-14T06:56:29;37.08;;;16.10;;
62994;SDS011;49086;52.300;4.850;2022-11-14T06:58:54;38.47;;;17.90;;
62994;SDS011;49086;52.300;4.850;2022-11-14T07:01:22;38.65;;;17.48;;
62994;SDS011;49086;52.300;4.850;2022-11-14T07:03:50;38.05;;;15.50;;
62994;SDS011;49086;52.300;4.850;2022-11-14T07:06:17;36.20;;;16.73;;
62994;SDS011;49086;52.300;4.850;2022-11-14T07:08:43;37.40;;;16.48;;
62994;SDS011;49086;52.300;4.850;2022-11-14T07:11:10;37.57;;;16.27;;
62994;SDS011;49086;52.300;4.850;2022-11-14T07:13:36;36.10;;;16.27;;
62994;SDS011;49086;52.300;4.850;2022-11-14T07:16:01;33.50;;;16.60;;
62994;SDS011;49086;52.300;4.850;2022-11-14T07:18:30;36.58;;;15.38;;
62994;SDS011;49086;52.300;4.850;2022-11-14T07:20:57;35.65;;;17.45;;
62994;SDS011;49086;52.300;4.850;2022-11-14T07:23:23;35.20;;;17.15;;
62994;SDS011;49086;52.300;4.850;2022-11-14T07:25:49;33.03;;;15.73;;
62994;SDS011;49086;52.300;4.850;2022-11-14T07:28:14;35.33;;;15.87;;
62994;SDS011;49086;52.300;4.850;2022-11-14T07:30:40;36.03;;;15.70;;
62994;SDS011;49086;52.300;4.850;2022-11-14T07:33:10;31.50;;;16.67;;
62994;SDS011;49086;52.300;4.850;2022-11-14T07:35:38;36.28;;;15.40;;
62994;SDS011;49086;52.300;4.850;2022-11-14T07:38:04;31.42;;;14.70;;
62994;SDS011;49086;52.300;4.850;2022-11-14T07:40:29;33.50;;;15.25;;
62994;SDS011;49086;52.300;4.850;2022-11-14T07:42:58;33.63;;;14.73;;
62994;SDS011;49086;52.300;4.850;2022-11-14T07:45:24;35.75;;;14.50;;
62994;SDS011;49086;52.300;4.850;2022-11-14T07:47:49;34.00;;;15.82;;
62994;SDS011;49086;52.300;4.850;2022-11-14T07:50:14;32.67;;;16.23;;
62994;SDS011;49086;52.300;4.850;2022-11-14T07:52:40;31.63;;;15.43;;
62994;SDS011;49086;52.300;4.850;2022-11-14T07:55:06;32.60;;;14.65;;
62994;SDS011;49086;52.300;4.850;2022-11-14T07:57:33;33.70;;;14.98;;
62994;SDS011;49086;52.300;4.850;2022-11-14T07:59:58;29.00;;;13.70;;
62994;SDS011;49086;52.300;4.850;2022-11-14T08:02:26;27.30;;;14.15;;
62994;SDS011;49086;52.300;4.850;2022-11-14T08:04:51;32.70;;;14.88;;
62994;SDS011;49086;52.300;4.850;2022-11-14T08:07:18;32.30;;;15.10;;
62994;SDS011;49086;52.300;4.850;2022-11-14T08:09:43;27.63;;;13.80;;
62994;SDS011;49086;52.300;4.850;2022-11-14T08:12:18;36.00;;;15.55;;
62994;SDS011;49086;52.300;4.850;2022-11-14T08:14:43;35.67;;;14.60;;
62994;SDS011;49086;52.300;4.850;2022-11-14T08:17:09;30.23;;;14.30;;
62994;SDS011;49086;52.300;4.850;2022-11-14T08:19:34;29.70;;;14.33;;
62994;SDS011;49086;52.300;4.850;2022-11-14T08:21:59;31.93;;;14.57;;
62994;SDS011;49086;52.300;4.850;2022-11-14T08:24:27;27.90;;;14.07;;
62994;SDS011;49086;52.300;4.850;2022-11-14T08:26:52;26.83;;;14.63;;
62994;SDS011;49086;52.300;4.850;2022-11-14T08:29:18;31.42;;;13.20;;
62994;SDS011;49086;52.300;4.850;2022-11-14T08:31:44;30.45;;;14.45;;
62994;SDS011;49086;52.300;4.850;2022-11-14T08:34:10;27.02;;;13.32;;
62994;SDS011;49086;52.300;4.850;2022-11-14T08:36:36;27.98;;;13.90;;
62994;SDS011;49086;52.300;4.850;2022-11-14T08:39:02;30.42;;;14.50;;
62994;SDS011;49086;52.300;4.850;2022-11-14T08:41:27;24.38;;;13.13;;
62994;SDS011;49086;52.300;4.850;2022-11-14T08:43:52;36.33;;;14.00;;
62994;SDS011;49086;52.300;4.850;2022-11-14T08:46:18;28.67;;;14.07;;
62994;SDS011;49086;52.300;4.850;2022-11-14T08:48:44;26.52;;;13.07;;
62994;SDS011;49086;52.300;4.850;2022-11-14T08:51:10;30.50;;;13.45;;
62994;SDS011;49086;52.300;4.850;2022-11-14T08:53:35;26.57;;;13.70;;
62994;SDS011;49086;52.300;4.850;2022-11-14T08:56:01;25.10;;;12.52;;
62994;SDS011;49086;52.300;4.850;2022-11-14T08:58:30;24.40;;;12.63;;
62994;SDS011;49086;52.300;4.850;2022-11-14T09:01:14;24.33;;;12.60;;
62994;SDS011;49086;52.300;4.850;2022-11-14T09:03:39;29.10;;;12.85;;
62994;SDS011;49086;52.300;4.850;2022-11-14T09:06:08;25.08;;;13.35;;
62994;SDS011;49086;52.300;4.850;2022-11-14T09:08:34;25.30;;;12.95;;
62994;SDS011;49086;52.300;4.850;2022-11-14T09:11:00;26.15;;;12.77;;
62994;SDS011;49086;52.300;4.850;2022-11-14T09:13:27;29.45;;;13.38;;
62994;SDS011;49086;52.300;4.850;2022-11-14T09:15:52;27.65;;;13.02;;
62994;SDS011;49086;52.300;4.850;2022-11-14T09:18:17;25.17;;;12.60;;
62994;SDS011;49086;52.300;4.850;2022-11-14T09:20:43;24.13;;;13.00;;
62994;SDS011;49086;52.300;4.850;2022-11-14T09:23:08;24.52;;;12.23;;
62994;SDS011;49086;52.300;4.850;2022-11-14T09:25:44;21.92;;;11.80;;
62994;SDS011;49086;52.300;4.850;2022-11-14T09:28:09;25.58;;;12.60;;
62994;SDS011;49086;52.300;4.850;2022-11-14T09:30:35;25.50;;;12.38;;
62994;SDS011;49086;52.300;4.850;2022-11-14T09:33:01;23.13;;;11.93;;
62994;SDS011;49086;52.300;4.850;2022-11-14T09:35:29;22.48;;;12.48;;
62994;SDS011;49086;52.300;4.850;2022-11-14T09:38:09;21.23;;;11.98;;
62994;SDS011;49086;52.300;4.850;2022-11-14T09:43:17;24.95;;;12.77;;
62994;SDS011;49086;52.300;4.850;2022-11-14T09:45:48;22.63;;;11.70;;
62994;SDS011;49086;52.300;4.850;2022-11-14T09:48:17;23.73;;;13.02;;
62994;SDS011;49086;52.300;4.850;2022-11-14T09:50:44;23.88;;;11.85;;
62994;SDS011;49086;52.300;4.850;2022-11-14T09:53:18;19.90;;;11.48;;
62994;SDS011;49086;52.300;4.850;2022-11-14T09:55:50;25.08;;;12.02;;
62994;SDS011;49086;52.300;4.850;2022-11-14T09:58:19;23.50;;;11.98;;
62994;SDS011;49086;52.300;4.850;2022-11-14T10:00:51;20.23;;;11.48;;
62994;SDS011;49086;52.300;4.850;2022-11-14T10:03:26;20.88;;;12.50;;
62994;SDS011;49086;52.300;4.850;2022-11-14T10:08:48;25.17;;;12.52;;
62994;SDS011;49086;52.300;4.850;2022-11-14T10:11:48;20.60;;;11.32;;
62994;SDS011;49086;52.300;4.850;2022-11-14T10:26:46;20.48;;;10.77;;
62994;SDS011;49086;52.300;4.850;2022-11-14T10:39:34;20.50;;;10.83;;
62994;SDS011;49086;52.300;4.850;2022-11-14T10:42:08;19.55;;;10.98;;
62994;SDS011;49086;52.300;4.850;2022-11-14T10:44:38;20.98;;;10.30;;
62994;SDS011;49086;52.300;4.850;2022-11-14T10:47:07;24.08;;;11.90;;
62994;SDS011;49086;52.300;4.850;2022-11-14T10:49:34;18.17;;;10.52;;
62994;SDS011;49086;52.300;4.850;2022-11-14T10:52:02;20.48;;;10.60;;
62994;SDS011;49086;52.300;4.850;2022-11-14T10:54:31;18.83;;;10.88;;
62994;SDS011;49086;52.300;4.850;2022-11-14T10:56:57;15.93;;;10.73;;
62994;SDS011;49086;52.300;4.850;2022-11-14T10:59:27;21.10;;;11.55;;
62994;SDS011;49086;52.300;4.850;2022-11-14T11:01:54;20.90;;;10.85;;
62994;SDS011;49086;52.300;4.850;2022-11-14T11:04:23;20.10;;;11.40;;
62994;SDS011;49086;52.300;4.850;2022-11-14T11:06:50;17.05;;;10.50;;
62994;SDS011;49086;52.300;4.850;2022-11-14T11:09:25;17.52;;;10.30;;
62994;SDS011;49086;52.300;4.850;2022-11-14T11:12:16;18.20;;;9.93;;
62994;SDS011;49086;52.300;4.850;2022-11-14T11:14:42;18.65;;;10.00;;
62994;SDS011;49086;52.300;4.850;2022-11-14T11:19:34;17.70;;;10.17;;
62994;SDS011;49086;52.300;4.850;2022-11-14T11:22:00;20.33;;;10.38;;
62994;SDS011;49086;52.300;4.850;2022-11-14T11:24:31;18.50;;;10.30;;
62994;SDS011;49086;52.300;4.850;2022-11-14T11:32:39;16.90;;;10.55;;
62994;SDS011;49086;52.300;4.850;2022-11-14T11:35:08;19.48;;;11.73;;
62994;SDS011;49086;52.300;4.850;2022-11-14T11:40:04;20.70;;;10.60;;
62994;SDS011;49086;52.300;4.850;2022-11-14T11:45:28;19.50;;;10.20;;
62994;SDS011;49086;52.300;4.850;2022-11-14T11:47:55;17.27;;;10.23;;
62994;SDS011;49086;52.300;4.850;2022-11-14T11:50:23;16.80;;;10.27;;
62994;SDS011;49086;52.300;4.850;2022-11-14T11:55:37;16.20;;;10.02;;
62994;SDS011;49086;52.300;4.850;2022-11-14T12:00:51;17.75;;;9.50;;
62994;SDS011;49086;52.300;4.850;2022-11-14T12:03:24;16.70;;;8.90;;
62994;SDS011;49086;52.300;4.850;2022-11-14T12:11:20;14.35;;;9.10;;
62994;SDS011;49086;52.300;4.850;2022-11-14T12:21:54;14.30;;;9.23;;
62994;SDS011;49086;52.300;4.850;2022-11-14T12:24:51;14.15;;;9.52;;
62994;SDS011;49086;52.300;4.850;2022-11-14T12:27:24;16.92;;;9.93;;
62994;SDS011;49086;52.300;4.850;2022-11-14T12:30:06;15.60;;;9.50;;
62994;SDS011;49086;52.300;4.850;2022-11-14T12:32:39;15.57;;;9.48;;
62994;SDS011;49086;52.300;4.850;2022-11-14T12:35:08;18.52;;;9.90;;
62994;SDS011;49086;52.300;4.850;2022-11-14T12:40:12;16.23;;;10.25;;
62994;SDS011;49086;52.300;4.850;2022-11-14T12:42:45;14.90;;;9.75;;
62994;SDS011;49086;52.300;4.850;2022-11-14T12:46:12;19.58;;;10.65;;
62994;SDS011;49086;52.300;4.850;2022-11-14T12:50:56;16.60;;;9.68;;
62994;SDS011;49086;52.300;4.850;2022-11-14T12:53:37;15.27;;;9.50;;
62994;SDS011;49086;52.300;4.850;2022-11-14T13:07:50;22.45;;;11.52;;
62994;SDS011;49086;52.300;4.850;2022-11-14T13:10:27;21.95;;;10.77;;
62994;SDS011;49086;52.300;4.850;2022-11-14T13:13:11;18.60;;;10.18;;
62994;SDS011;49086;52.300;4.850;2022-11-14T13:15:56;16.65;;;10.80;;
62994;SDS011;49086;52.300;4.850;2022-11-14T13:18:53;16.48;;;10.55;;
62994;SDS011;49086;52.300;4.850;2022-11-14T13:21:38;20.17;;;11.23;;
62994;SDS011;49086;52.300;4.850;2022-11-14T13:24:39;17.98;;;10.90;;
62994;SDS011;49086;52.300;4.850;2022-11-14T13:27:32;17.85;;;10.63;;
62994;SDS011;49086;52.300;4.850;2022-11-14T13:29:59;17.88;;;10.80;;
62994;SDS011;49086;52.300;4.850;2022-11-14T13:32:51;15.63;;;11.30;;
62994;SDS011;49086;52.300;4.850;2022-11-14T13:35:23;16.10;;;10.68;;
62994;SDS011;49086;52.300;4.850;2022-11-14T13:40:37;19.02;;;11.65;;
62994;SDS011;49086;52.300;4.850;2022-11-14T13:51:18;20.05;;;11.85;;
62994;SDS011;49086;52.300;4.850;2022-11-14T13:53:44;17.95;;;12.02;;
62994;SDS011;49086;52.300;4.850;2022-11-14T14:01:11;19.48;;;12.82;;
62994;SDS011;49086;52.300;4.850;2022-11-14T14:08:56;25.25;;;15.50;;
62994;SDS011;49086;52.300;4.850;2022-11-14T14:14:33;30.35;;;18.88;;
62994;SDS011;49086;52.300;4.850;2022-11-14T14:17:12;35.38;;;20.38;;
62994;SDS011;49086;52.300;4.850;2022-11-14T14:30:32;40.15;;;23.27;;
62994;SDS011;49086;52.300;4.850;2022-11-14T14:33:08;33.05;;;21.38;;
62994;SDS011;49086;52.300;4.850;2022-11-14T14:35:35;37.22;;;22.60;;
62994;SDS011;49086;52.300;4.850;2022-11-14T14:38:02;34.03;;;21.13;;
62994;SDS011;49086;52.300;4.850;2022-11-14T14:40:30;32.88;;;21.67;;
62994;SDS011;49086;52.300;4.850;2022-11-14T14:42:58;38.47;;;22.67;;
62994;SDS011;49086;52.300;4.850;2022-11-14T14:45:24;34.55;;;21.83;;
62994;SDS011;49086;52.300;4.850;2022-11-14T14:47:57;33.53;;;21.02;;
62994;SDS011;49086;52.300;4.850;2022-11-14T14:50:25;36.20;;;21.83;;
62994;SDS011;49086;52.300;4.850;2022-11-14T14:52:57;38.10;;;22.48;;
62994;SDS011;49086;52.300;4.850;2022-11-14T14:55:24;38.20;;;22.92;;
62994;SDS011;49086;52.300;4.850;2022-11-14T14:57:49;36.58;;;21.27;;
62994;SDS011;49086;52.300;4.850;2022-11-14T15:00:24;36.45;;;22.83;;
62994;SDS011;49086;52.300;4.850;2022-11-14T15:02:55;34.50;;;21.83;;
62994;SDS011;49086;52.300;4.850;2022-11-14T15:05:27;38.47;;;21.75;;
62994;SDS011;49086;52.300;4.850;2022-11-14T15:07:58;36.15;;;23.20;;
62994;SDS011;49086;52.300;4.850;2022-11-14T15:10:29;37.28;;;21.67;;
62994;SDS011;49086;52.300;4.850;2022-11-14T15:12:59;38.05;;;22.00;;
62994;SDS011;49086;52.300;4.850;2022-11-14T15:15:26;39.50;;;21.73;;
62994;SDS011;49086;52.300;4.850;2022-11-14T15:17:52;39.88;;;22.25;;
62994;SDS011;49086;52.300;4.850;2022-11-14T15:20:25;39.03;;;22.70;;
62994;SDS011;49086;52.300;4.850;2022-11-14T15:26:01;39.85;;;22.02;;
62994;SDS011;49086;52.300;4.850;2022-11-14T15:28:27;39.88;;;22.27;;
62994;SDS011;49086;52.300;4.850;2022-11-14T15:31:01;41.45;;;22.50;;
62994;SDS011;49086;52.300;4.850;2022-11-14T15:33:27;41.72;;;22.80;;
62994;SDS011;49086;52.300;4.850;2022-11-14T15:41:09;38.08;;;21.15;;
62994;SDS011;49086;52.300;4.850;2022-11-14T15:46:49;39.15;;;23.00;;
62994;SDS011;49086;52.300;4.850;2022-11-14T15:48:54;35.80;;;21.40;;
62994;SDS011;49086;52.300;4.850;2022-11-14T15:54:04;39.20;;;20.27;;
62994;SDS011;49086;52.300;4.850;2022-11-14T15:56:31;38.08;;;21.33;;
62994;SDS011;49086;52.300;4.850;2022-11-14T15:58:56;35.97;;;21.55;;
62994;SDS011;49086;52.300;4.850;2022-11-14T16:01:22;36.17;;;19.05;;
62994;SDS011;49086;52.300;4.850;2022-11-14T16:03:51;36.05;;;20.60;;
62994;SDS011;49086;52.300;4.850;2022-11-14T16:06:17;35.63;;;20.33;;
62994;SDS011;49086;52.300;4.850;2022-11-14T16:08:52;38.05;;;19.88;;
62994;SDS011;49086;52.300;4.850;2022-11-14T16:11:18;36.95;;;20.08;;
62994;SDS011;49086;52.300;4.850;2022-11-14T16:13:44;34.33;;;19.77;;
62994;SDS011;49086;52.300;4.850;2022-11-14T16:16:10;33.87;;;19.73;;
62994;SDS011;49086;52.300;4.850;2022-11-14T16:18:35;39.55;;;20.48;;
62994;SDS011;49086;52.300;4.850;2022-11-14T16:21:01;36.00;;;20.80;;
62994;SDS011;49086;52.300;4.850;2022-11-14T16:23:27;43.92;;;22.73;;
62994;SDS011;49086;52.300;4.850;2022-11-14T16:25:52;36.37;;;20.10;;
62994;SDS011;49086;52.300;4.850;2022-11-14T16:28:18;38.53;;;19.75;;
62994;SDS011;49086;52.300;4.850;2022-11-14T16:30:44;36.72;;;20.73;;
62994;SDS011;49086;52.300;4.850;2022-11-14T16:33:11;38.05;;;20.05;;
62994;SDS011;49086;52.300;4.850;2022-11-14T16:35:36;39.22;;;19.52;;